Terminal Aerodrome Forecast
Issued by NWS Cleveland, OH

Home | Current Version | Previous Version | Text Only | Print | Product List | Glossary Off
Versions: 1 2 3 4 5 6 7 8 9 10 11 12 13 14 15 16 17 18 19 20 21 22 23 24 25 26

000
FTUS41 KCLE 241900 AAA
TAFERI
TAF AMD
KERI 241906Z 2419/2518 24008KT 2SM BR OVC008
     FM242300 25010KT 3SM -SHSN OVC015
     FM250500 24010KT P6SM VCSH OVC012
     FM251200 03008KT P6SM OVC012=

USA.gov is the U.S. government's official web portal to all federal, state and local government web resources and services.